Brunette Downs Airport


Codes: YBRU/BTD
Name: Brunette Downs Airport
City:
Country: Australia
Elevation: 700 ft.

Photos at Brunette Downs Airport


   Photos courtesy of SpottingLog. You can add your own sightings and photos by signing up for a free trial today.



No photos found.

Weather at Brunette Downs Airport


Time (UTC)DescriptionTempratureWindCloud coverageVisibilityPressureHumidity
13-Jun-2024 03:00Clear Sky24°C13 mph, SE7%10000m1018hPa16%
13-Jun-2024 06:00Clear Sky27°C11 mph, SE4%10000m1015hPa13%
13-Jun-2024 09:00Clear Sky26°C9 mph, SE0%10000m1014hPa16%
13-Jun-2024 12:00Clear Sky23°C9 mph, SE0%10000m1016hPa22%
13-Jun-2024 15:00Clear Sky21°C11 mph, SE0%10000m1017hPa30%
13-Jun-2024 18:00Clear Sky19°C9 mph, SE0%10000m1016hPa34%
13-Jun-2024 21:00Clear Sky18°C9 mph, SE0%10000m1017hPa36%
14-Jun-2024 00:00Clear Sky23°C11 mph, SE0%10000m1018hPa27%
14-Jun-2024 03:00Clear Sky29°C11 mph, SE0%10000m1015hPa18%
14-Jun-2024 06:00Clear Sky30°C9 mph, SE0%10000m1013hPa16%
14-Jun-2024 09:00Clear Sky26°C9 mph, SE0%10000m1014hPa20%
14-Jun-2024 12:00Clear Sky24°C11 mph, SE0%10000m1016hPa24%
14-Jun-2024 15:00Clear Sky22°C11 mph, SE0%10000m1016hPa28%
14-Jun-2024 18:00Clear Sky20°C11 mph, SE0%10000m1016hPa32%
14-Jun-2024 21:00Clear Sky18°C11 mph, SE0%10000m1018hPa36%
15-Jun-2024 00:00Clear Sky23°C16 mph, SE0%10000m1019hPa27%
15-Jun-2024 03:00Clear Sky28°C16 mph, SE0%10000m1016hPa18%
15-Jun-2024 06:00Clear Sky29°C13 mph, SE0%10000m1014hPa14%
15-Jun-2024 09:00Clear Sky25°C11 mph, SE0%10000m1015hPa20%
15-Jun-2024 12:00Clear Sky22°C13 mph, SE0%10000m1017hPa29%
15-Jun-2024 15:00Clear Sky21°C16 mph, SE0%10000m1017hPa40%
15-Jun-2024 18:00Clear Sky19°C13 mph, SE0%10000m1017hPa36%
15-Jun-2024 21:00Clear Sky17°C11 mph, SE0%10000m1019hPa37%
16-Jun-2024 00:00Clear Sky20°C18 mph, SE0%10000m1021hPa34%
16-Jun-2024 03:00Clear Sky25°C16 mph, SE0%10000m1018hPa22%
16-Jun-2024 06:00Clear Sky27°C16 mph, SE0%10000m1016hPa18%
16-Jun-2024 09:00Clear Sky23°C11 mph, SE0%10000m1018hPa23%
16-Jun-2024 12:00Clear Sky21°C11 mph, SE0%10000m1019hPa29%
16-Jun-2024 15:00Clear Sky19°C13 mph, SE0%10000m1019hPa34%
16-Jun-2024 18:00Clear Sky18°C13 mph, SE0%10000m1019hPa41%
16-Jun-2024 21:00Clear Sky16°C13 mph, SE0%10000m1019hPa48%
17-Jun-2024 00:00Clear Sky20°C18 mph, SE0%10000m1021hPa37%
17-Jun-2024 03:00Clear Sky25°C18 mph, SE0%10000m1019hPa23%
17-Jun-2024 06:00Clear Sky26°C16 mph, SE0%10000m1016hPa19%
17-Jun-2024 09:00Clear Sky23°C11 mph, SE0%10000m1017hPa24%
17-Jun-2024 12:00Clear Sky21°C11 mph, SE0%10000m1019hPa29%
17-Jun-2024 15:00Clear Sky19°C13 mph, SE0%10000m1019hPa32%
17-Jun-2024 18:00Clear Sky17°C13 mph, SE0%10000m1018hPa35%
17-Jun-2024 21:00Clear Sky15°C11 mph, SE5%10000m1019hPa40%
18-Jun-2024 00:00Clear Sky20°C16 mph, SE3%10000m1020hPa30%